Terminal Aerodrome Forecast
Issued by NWS

Home | Current Version | Previous Version | Graphics & Text | Print | Product List | Glossary On
Versions: 1 2 3 4 5 6 7 8 9 10 11 12 13 14 15 16
000
FTUS43 KICT 270500
TAFSLN
TAF
KSLN 270520Z 2706/2806 13006KT P6SM SCT090 BKN150
     FM271700 18012G17KT P6SM FEW080 FEW250
     FM280300 15007KT P6SM BKN250=

USA.gov is the U.S. government's official web portal to all federal, state and local government web resources and services.